sensor_id;sensor_type;location;lat;lon;timestamp;temperature;humidity
516;DHT22;244;48.508;9.052;2023-06-10T00:00:48;18.60;7.00
516;DHT22;244;48.508;9.052;2023-06-10T00:03:17;18.50;7.00
516;DHT22;244;48.508;9.052;2023-06-10T00:05:44;18.50;7.10
516;DHT22;244;48.508;9.052;2023-06-10T00:08:12;18.40;7.10
516;DHT22;244;48.508;9.052;2023-06-10T00:10:41;18.30;7.20
516;DHT22;244;48.508;9.052;2023-06-10T00:13:08;18.30;7.40
516;DHT22;244;48.508;9.052;2023-06-10T00:15:35;18.30;7.40
516;DHT22;244;48.508;9.052;2023-06-10T00:18:02;18.20;7.40
516;DHT22;244;48.508;9.052;2023-06-10T00:20:31;18.20;7.70
516;DHT22;244;48.508;9.052;2023-06-10T00:22:58;18.10;7.60
516;DHT22;244;48.508;9.052;2023-06-10T00:25:26;18.00;7.80
516;DHT22;244;48.508;9.052;2023-06-10T00:27:54;18.00;7.80
516;DHT22;244;48.508;9.052;2023-06-10T00:30:20;18.00;7.90
516;DHT22;244;48.508;9.052;2023-06-10T00:32:47;17.90;7.90
516;DHT22;244;48.508;9.052;2023-06-10T00:35:14;17.90;8.10
516;DHT22;244;48.508;9.052;2023-06-10T00:37:42;17.90;8.20
516;DHT22;244;48.508;9.052;2023-06-10T00:40:10;17.90;8.30
516;DHT22;244;48.508;9.052;2023-06-10T00:42:37;17.80;8.20
516;DHT22;244;48.508;9.052;2023-06-10T00:45:05;17.80;8.30
516;DHT22;244;48.508;9.052;2023-06-10T00:47:32;17.70;8.30
516;DHT22;244;48.508;9.052;2023-06-10T00:50:01;17.70;8.40
516;DHT22;244;48.508;9.052;2023-06-10T00:52:28;17.60;8.50
516;DHT22;244;48.508;9.052;2023-06-10T00:54:57;17.60;8.50
516;DHT22;244;48.508;9.052;2023-06-10T00:57:25;17.50;8.50
516;DHT22;244;48.508;9.052;2023-06-10T00:59:52;17.50;8.60
516;DHT22;244;48.508;9.052;2023-06-10T01:02:19;17.50;8.80
516;DHT22;244;48.508;9.052;2023-06-10T01:04:45;17.40;9.40
516;DHT22;244;48.508;9.052;2023-06-10T01:07:19;17.30;8.80
516;DHT22;244;48.508;9.052;2023-06-10T01:09:54;17.30;8.90
516;DHT22;244;48.508;9.052;2023-06-10T01:12:29;17.30;9.00
516;DHT22;244;48.508;9.052;2023-06-10T01:14:58;17.30;9.80
516;DHT22;244;48.508;9.052;2023-06-10T01:17:26;17.20;9.30
516;DHT22;244;48.508;9.052;2023-06-10T01:19:54;17.20;9.30
516;DHT22;244;48.508;9.052;2023-06-10T01:22:24;17.20;9.40
516;DHT22;244;48.508;9.052;2023-06-10T01:24:52;17.10;9.40
516;DHT22;244;48.508;9.052;2023-06-10T01:27:21;17.10;9.50
516;DHT22;244;48.508;9.052;2023-06-10T01:29:53;17.10;9.60
516;DHT22;244;48.508;9.052;2023-06-10T01:32:26;17.10;9.80
516;DHT22;244;48.508;9.052;2023-06-10T01:34:56;17.10;9.80
516;DHT22;244;48.508;9.052;2023-06-10T01:37:26;17.00;9.80
516;DHT22;244;48.508;9.052;2023-06-10T01:39:55;17.00;9.90
516;DHT22;244;48.508;9.052;2023-06-10T01:42:25;17.00;10.10
516;DHT22;244;48.508;9.052;2023-06-10T01:44:52;17.00;10.40
516;DHT22;244;48.508;9.052;2023-06-10T01:47:19;17.00;10.60
516;DHT22;244;48.508;9.052;2023-06-10T01:49:46;16.90;10.60
516;DHT22;244;48.508;9.052;2023-06-10T01:52:13;16.90;10.60
516;DHT22;244;48.508;9.052;2023-06-10T01:54:41;16.90;10.60
516;DHT22;244;48.508;9.052;2023-06-10T01:57:08;16.90;10.60
516;DHT22;244;48.508;9.052;2023-06-10T01:59:35;16.90;10.60
516;DHT22;244;48.508;9.052;2023-06-10T02:02:03;16.80;10.50
516;DHT22;244;48.508;9.052;2023-06-10T02:04:30;16.80;10.50
516;DHT22;244;48.508;9.052;2023-06-10T02:06:57;16.80;10.60
516;DHT22;244;48.508;9.052;2023-06-10T02:09:25;16.80;10.50
516;DHT22;244;48.508;9.052;2023-06-10T02:11:53;16.70;10.50
516;DHT22;244;48.508;9.052;2023-06-10T02:14:20;16.70;10.70
516;DHT22;244;48.508;9.052;2023-06-10T02:16:47;16.60;10.80
516;DHT22;244;48.508;9.052;2023-06-10T02:19:14;16.60;10.90
516;DHT22;244;48.508;9.052;2023-06-10T02:21:41;16.60;10.90
516;DHT22;244;48.508;9.052;2023-06-10T02:24:08;16.60;10.90
516;DHT22;244;48.508;9.052;2023-06-10T02:26:34;16.50;10.90
516;DHT22;244;48.508;9.052;2023-06-10T02:29:03;16.50;11.10
516;DHT22;244;48.508;9.052;2023-06-10T02:31:30;16.50;11.10
516;DHT22;244;48.508;9.052;2023-06-10T02:33:56;16.50;11.30
516;DHT22;244;48.508;9.052;2023-06-10T02:36:23;16.40;11.30
516;DHT22;244;48.508;9.052;2023-06-10T02:38:53;16.40;11.30
516;DHT22;244;48.508;9.052;2023-06-10T02:41:21;16.40;11.40
516;DHT22;244;48.508;9.052;2023-06-10T02:43:48;16.40;11.60
516;DHT22;244;48.508;9.052;2023-06-10T02:46:16;16.40;11.50
516;DHT22;244;48.508;9.052;2023-06-10T02:48:45;16.30;11.50
516;DHT22;244;48.508;9.052;2023-06-10T02:51:12;16.30;11.60
516;DHT22;244;48.508;9.052;2023-06-10T02:53:39;16.30;12.30
516;DHT22;244;48.508;9.052;2023-06-10T02:56:06;16.20;11.70
516;DHT22;244;48.508;9.052;2023-06-10T02:58:32;16.20;11.80
516;DHT22;244;48.508;9.052;2023-06-10T03:01:00;16.20;11.90
516;DHT22;244;48.508;9.052;2023-06-10T03:03:28;16.10;11.90
516;DHT22;244;48.508;9.052;2023-06-10T03:05:56;16.10;12.10
516;DHT22;244;48.508;9.052;2023-06-10T03:08:24;16.10;12.10
516;DHT22;244;48.508;9.052;2023-06-10T03:10:51;16.10;12.20
516;DHT22;244;48.508;9.052;2023-06-10T03:13:18;16.10;12.20
516;DHT22;244;48.508;9.052;2023-06-10T03:15:45;16.10;12.20
516;DHT22;244;48.508;9.052;2023-06-10T03:18:12;16.10;12.30
516;DHT22;244;48.508;9.052;2023-06-10T03:20:40;16.10;12.40
516;DHT22;244;48.508;9.052;2023-06-10T03:23:07;16.00;12.40
516;DHT22;244;48.508;9.052;2023-06-10T03:25:35;16.00;12.50
516;DHT22;244;48.508;9.052;2023-06-10T03:28:02;16.00;12.50
516;DHT22;244;48.508;9.052;2023-06-10T03:30:28;16.00;12.60
516;DHT22;244;48.508;9.052;2023-06-10T03:32:55;16.00;12.70
516;DHT22;244;48.508;9.052;2023-06-10T03:35:22;16.00;12.70
516;DHT22;244;48.508;9.052;2023-06-10T03:37:50;16.00;12.70
516;DHT22;244;48.508;9.052;2023-06-10T03:40:17;16.00;12.70
516;DHT22;244;48.508;9.052;2023-06-10T03:42:44;16.00;12.70
516;DHT22;244;48.508;9.052;2023-06-10T03:45:11;16.00;12.80
516;DHT22;244;48.508;9.052;2023-06-10T03:47:38;16.00;12.80
516;DHT22;244;48.508;9.052;2023-06-10T03:50:07;16.00;12.80
516;DHT22;244;48.508;9.052;2023-06-10T03:52:36;16.00;12.80
516;DHT22;244;48.508;9.052;2023-06-10T03:55:05;16.00;12.90
516;DHT22;244;48.508;9.052;2023-06-10T03:57:32;16.00;12.90
516;DHT22;244;48.508;9.052;2023-06-10T03:59:59;16.00;12.90
516;DHT22;244;48.508;9.052;2023-06-10T04:02:25;16.00;12.90
516;DHT22;244;48.508;9.052;2023-06-10T04:04:52;16.00;13.00
516;DHT22;244;48.508;9.052;2023-06-10T04:07:19;16.00;13.10
516;DHT22;244;48.508;9.052;2023-06-10T04:09:46;16.00;13.10
516;DHT22;244;48.508;9.052;2023-06-10T04:12:14;16.00;13.10
516;DHT22;244;48.508;9.052;2023-06-10T04:14:42;16.00;13.10
516;DHT22;244;48.508;9.052;2023-06-10T04:17:09;16.00;13.20
516;DHT22;244;48.508;9.052;2023-06-10T04:19:36;15.90;13.20
516;DHT22;244;48.508;9.052;2023-06-10T04:22:03;16.00;13.20
516;DHT22;244;48.508;9.052;2023-06-10T04:24:30;16.00;13.30
516;DHT22;244;48.508;9.052;2023-06-10T04:26:57;16.00;13.20
516;DHT22;244;48.508;9.052;2023-06-10T04:29:25;16.00;13.30
516;DHT22;244;48.508;9.052;2023-06-10T04:31:52;16.10;13.30
516;DHT22;244;48.508;9.052;2023-06-10T04:34:19;16.10;13.30
516;DHT22;244;48.508;9.052;2023-06-10T04:36:46;16.20;13.30
516;DHT22;244;48.508;9.052;2023-06-10T04:39:13;16.20;13.30
516;DHT22;244;48.508;9.052;2023-06-10T04:41:42;16.20;13.20
516;DHT22;244;48.508;9.052;2023-06-10T04:44:09;16.30;13.20
516;DHT22;244;48.508;9.052;2023-06-10T04:46:37;16.30;13.20
516;DHT22;244;48.508;9.052;2023-06-10T04:49:04;16.30;13.10
516;DHT22;244;48.508;9.052;2023-06-10T04:51:31;16.40;13.10
516;DHT22;244;48.508;9.052;2023-06-10T04:53:58;16.50;13.70
516;DHT22;244;48.508;9.052;2023-06-10T04:56:28;16.50;13.00
516;DHT22;244;48.508;9.052;2023-06-10T04:58:55;16.60;12.90
516;DHT22;244;48.508;9.052;2023-06-10T05:01:22;16.60;12.90
516;DHT22;244;48.508;9.052;2023-06-10T05:03:50;16.70;12.90
516;DHT22;244;48.508;9.052;2023-06-10T05:06:17;16.70;13.40
516;DHT22;244;48.508;9.052;2023-06-10T05:08:44;16.80;12.80
516;DHT22;244;48.508;9.052;2023-06-10T05:11:11;16.80;12.80
516;DHT22;244;48.508;9.052;2023-06-10T05:13:38;16.90;12.80
516;DHT22;244;48.508;9.052;2023-06-10T05:16:05;16.90;12.70
516;DHT22;244;48.508;9.052;2023-06-10T05:18:33;17.00;12.60
516;DHT22;244;48.508;9.052;2023-06-10T05:21:02;17.00;12.50
516;DHT22;244;48.508;9.052;2023-06-10T05:23:29;17.10;12.50
516;DHT22;244;48.508;9.052;2023-06-10T05:25:56;17.20;12.50
516;DHT22;244;48.508;9.052;2023-06-10T05:28:23;17.20;12.50
516;DHT22;244;48.508;9.052;2023-06-10T05:30:51;17.30;12.40
516;DHT22;244;48.508;9.052;2023-06-10T05:33:18;17.30;12.40
516;DHT22;244;48.508;9.052;2023-06-10T05:35:44;17.40;12.30
516;DHT22;244;48.508;9.052;2023-06-10T05:38:13;17.50;12.30
516;DHT22;244;48.508;9.052;2023-06-10T05:40:40;17.50;12.30
516;DHT22;244;48.508;9.052;2023-06-10T05:43:06;17.60;12.20
516;DHT22;244;48.508;9.052;2023-06-10T05:45:35;17.60;12.20
516;DHT22;244;48.508;9.052;2023-06-10T05:48:02;17.60;12.10
516;DHT22;244;48.508;9.052;2023-06-10T05:50:28;17.70;12.10
516;DHT22;244;48.508;9.052;2023-06-10T05:52:55;17.80;12.70
516;DHT22;244;48.508;9.052;2023-06-10T05:55:24;17.80;12.00
516;DHT22;244;48.508;9.052;2023-06-10T05:57:58;17.90;12.00
516;DHT22;244;48.508;9.052;2023-06-10T06:00:26;17.90;11.90
516;DHT22;244;48.508;9.052;2023-06-10T06:02:53;18.00;11.80
516;DHT22;244;48.508;9.052;2023-06-10T06:05:21;18.10;11.80
516;DHT22;244;48.508;9.052;2023-06-10T06:07:47;18.20;11.70
516;DHT22;244;48.508;9.052;2023-06-10T06:10:14;18.30;11.60
516;DHT22;244;48.508;9.052;2023-06-10T06:12:42;18.30;11.50
516;DHT22;244;48.508;9.052;2023-06-10T06:15:10;18.40;11.60
516;DHT22;244;48.508;9.052;2023-06-10T06:17:37;18.60;11.70
516;DHT22;244;48.508;9.052;2023-06-10T06:20:05;18.60;11.70
516;DHT22;244;48.508;9.052;2023-06-10T06:22:32;18.70;11.60
516;DHT22;244;48.508;9.052;2023-06-10T06:24:59;18.80;11.30
516;DHT22;244;48.508;9.052;2023-06-10T06:27:26;18.90;11.20
516;DHT22;244;48.508;9.052;2023-06-10T06:29:54;19.00;11.20
516;DHT22;244;48.508;9.052;2023-06-10T06:32:21;19.10;11.10
516;DHT22;244;48.508;9.052;2023-06-10T06:34:50;19.20;11.10
516;DHT22;244;48.508;9.052;2023-06-10T06:37:21;19.20;11.00
516;DHT22;244;48.508;9.052;2023-06-10T06:39:48;19.40;10.90
516;DHT22;244;48.508;9.052;2023-06-10T06:42:15;19.50;10.80
516;DHT22;244;48.508;9.052;2023-06-10T06:44:42;19.60;10.70
516;DHT22;244;48.508;9.052;2023-06-10T06:47:10;19.70;10.60
516;DHT22;244;48.508;9.052;2023-06-10T06:49:37;19.70;10.50
516;DHT22;244;48.508;9.052;2023-06-10T06:52:04;19.80;10.40
516;DHT22;244;48.508;9.052;2023-06-10T06:54:31;19.90;10.30
516;DHT22;244;48.508;9.052;2023-06-10T06:56:58;20.00;10.20
516;DHT22;244;48.508;9.052;2023-06-10T06:59:25;20.10;10.20
516;DHT22;244;48.508;9.052;2023-06-10T07:01:52;20.20;10.10
516;DHT22;244;48.508;9.052;2023-06-10T07:04:21;20.30;10.00
516;DHT22;244;48.508;9.052;2023-06-10T07:06:48;20.40;9.80
516;DHT22;244;48.508;9.052;2023-06-10T07:09:15;20.50;9.70
516;DHT22;244;48.508;9.052;2023-06-10T07:11:42;20.60;9.60
516;DHT22;244;48.508;9.052;2023-06-10T07:14:09;20.70;9.60
516;DHT22;244;48.508;9.052;2023-06-10T07:16:35;20.80;9.50
516;DHT22;244;48.508;9.052;2023-06-10T07:19:02;20.90;9.30
516;DHT22;244;48.508;9.052;2023-06-10T07:21:31;21.00;9.20
516;DHT22;244;48.508;9.052;2023-06-10T07:23:59;21.20;9.20
516;DHT22;244;48.508;9.052;2023-06-10T07:26:26;21.20;8.90
516;DHT22;244;48.508;9.052;2023-06-10T07:28:53;21.40;9.10
516;DHT22;244;48.508;9.052;2023-06-10T07:31:20;21.50;8.90
516;DHT22;244;48.508;9.052;2023-06-10T07:33:47;21.60;8.80
516;DHT22;244;48.508;9.052;2023-06-10T07:36:14;21.60;8.70
516;DHT22;244;48.508;9.052;2023-06-10T07:38:43;21.80;8.70
516;DHT22;244;48.508;9.052;2023-06-10T07:41:10;21.90;8.60
516;DHT22;244;48.508;9.052;2023-06-10T07:43:38;22.00;8.60
516;DHT22;244;48.508;9.052;2023-06-10T07:46:06;22.10;8.50
516;DHT22;244;48.508;9.052;2023-06-10T07:48:33;22.20;8.40
516;DHT22;244;48.508;9.052;2023-06-10T07:51:00;22.30;8.30
516;DHT22;244;48.508;9.052;2023-06-10T07:53:27;22.40;8.20
516;DHT22;244;48.508;9.052;2023-06-10T07:55:56;22.50;8.10
516;DHT22;244;48.508;9.052;2023-06-10T07:58:23;22.60;8.00
516;DHT22;244;48.508;9.052;2023-06-10T08:00:51;22.70;7.90
516;DHT22;244;48.508;9.052;2023-06-10T08:03:19;22.80;8.40
516;DHT22;244;48.508;9.052;2023-06-10T08:05:47;22.90;7.70
516;DHT22;244;48.508;9.052;2023-06-10T08:08:14;23.00;7.50
516;DHT22;244;48.508;9.052;2023-06-10T08:10:42;23.00;7.30
516;DHT22;244;48.508;9.052;2023-06-10T08:13:10;23.10;7.20
516;DHT22;244;48.508;9.052;2023-06-10T08:15:37;23.20;7.10
516;DHT22;244;48.508;9.052;2023-06-10T08:18:04;23.30;6.90
516;DHT22;244;48.508;9.052;2023-06-10T08:20:30;23.30;6.70
516;DHT22;244;48.508;9.052;2023-06-10T08:22:57;23.40;6.40
516;DHT22;244;48.508;9.052;2023-06-10T08:25:24;23.50;6.20
516;DHT22;244;48.508;9.052;2023-06-10T08:27:51;23.60;5.90
516;DHT22;244;48.508;9.052;2023-06-10T08:30:23;23.60;5.90
516;DHT22;244;48.508;9.052;2023-06-10T08:32:50;23.70;6.00
516;DHT22;244;48.508;9.052;2023-06-10T08:35:17;23.80;6.00
516;DHT22;244;48.508;9.052;2023-06-10T08:37:44;23.80;5.60
516;DHT22;244;48.508;9.052;2023-06-10T08:40:12;23.90;5.50
516;DHT22;244;48.508;9.052;2023-06-10T08:42:42;23.90;5.30
516;DHT22;244;48.508;9.052;2023-06-10T08:45:15;24.00;5.20
516;DHT22;244;48.508;9.052;2023-06-10T08:47:45;24.10;5.10
516;DHT22;244;48.508;9.052;2023-06-10T08:50:12;24.10;4.90
516;DHT22;244;48.508;9.052;2023-06-10T08:52:43;24.20;4.70
516;DHT22;244;48.508;9.052;2023-06-10T08:55:12;24.30;4.70
516;DHT22;244;48.508;9.052;2023-06-10T08:57:41;24.30;4.70
516;DHT22;244;48.508;9.052;2023-06-10T09:00:09;24.40;4.60
516;DHT22;244;48.508;9.052;2023-06-10T09:02:36;24.50;4.90
516;DHT22;244;48.508;9.052;2023-06-10T09:05:07;24.50;3.80
516;DHT22;244;48.508;9.052;2023-06-10T09:07:35;24.60;3.80
516;DHT22;244;48.508;9.052;2023-06-10T09:10:03;24.70;3.80
516;DHT22;244;48.508;9.052;2023-06-10T09:12:33;24.70;3.70
516;DHT22;244;48.508;9.052;2023-06-10T09:15:00;24.80;3.60
516;DHT22;244;48.508;9.052;2023-06-10T09:17:28;24.90;3.50
516;DHT22;244;48.508;9.052;2023-06-10T09:19:55;25.00;3.40
516;DHT22;244;48.508;9.052;2023-06-10T09:22:24;25.10;3.20
516;DHT22;244;48.508;9.052;2023-06-10T09:24:52;25.10;3.00
516;DHT22;244;48.508;9.052;2023-06-10T09:27:30;25.10;2.70
516;DHT22;244;48.508;9.052;2023-06-10T09:29:57;25.20;3.40
516;DHT22;244;48.508;9.052;2023-06-10T09:32:24;25.20;2.60
516;DHT22;244;48.508;9.052;2023-06-10T09:34:51;25.30;2.50
516;DHT22;244;48.508;9.052;2023-06-10T09:37:20;25.30;2.30
516;DHT22;244;48.508;9.052;2023-06-10T09:40:04;25.40;2.20
516;DHT22;244;48.508;9.052;2023-06-10T09:42:36;25.50;1.90
516;DHT22;244;48.508;9.052;2023-06-10T09:45:04;25.50;1.80
516;DHT22;244;48.508;9.052;2023-06-10T09:47:32;25.50;1.60
516;DHT22;244;48.508;9.052;2023-06-10T09:49:59;25.60;1.70
516;DHT22;244;48.508;9.052;2023-06-10T09:52:28;25.60;1.30
516;DHT22;244;48.508;9.052;2023-06-10T09:55:01;25.70;1.30
516;DHT22;244;48.508;9.052;2023-06-10T09:57:31;25.70;1.00
516;DHT22;244;48.508;9.052;2023-06-10T09:59:58;25.80;1.00
516;DHT22;244;48.508;9.052;2023-06-10T10:02:25;25.90;1.00
516;DHT22;244;48.508;9.052;2023-06-10T10:04:52;26.00;1.00
516;DHT22;244;48.508;9.052;2023-06-10T10:07:19;26.10;1.00
516;DHT22;244;48.508;9.052;2023-06-10T10:09:46;26.20;1.00
516;DHT22;244;48.508;9.052;2023-06-10T10:12:15;26.30;1.00
516;DHT22;244;48.508;9.052;2023-06-10T10:14:46;26.40;1.00
516;DHT22;244;48.508;9.052;2023-06-10T10:17:15;26.50;1.00
516;DHT22;244;48.508;9.052;2023-06-10T10:19:46;26.50;1.00
516;DHT22;244;48.508;9.052;2023-06-10T10:22:17;26.60;1.00
516;DHT22;244;48.508;9.052;2023-06-10T10:24:50;26.60;1.00
516;DHT22;244;48.508;9.052;2023-06-10T10:27:27;26.70;1.00
516;DHT22;244;48.508;9.052;2023-06-10T10:29:55;26.90;1.00
516;DHT22;244;48.508;9.052;2023-06-10T10:32:29;27.00;1.00
516;DHT22;244;48.508;9.052;2023-06-10T10:35:01;27.10;1.00
516;DHT22;244;48.508;9.052;2023-06-10T10:37:31;27.20;1.00
516;DHT22;244;48.508;9.052;2023-06-10T10:39:58;27.20;1.00
516;DHT22;244;48.508;9.052;2023-06-10T10:42:27;27.30;1.00
516;DHT22;244;48.508;9.052;2023-06-10T10:44:55;27.30;1.00
516;DHT22;244;48.508;9.052;2023-06-10T10:47:22;27.30;1.00
516;DHT22;244;48.508;9.052;2023-06-10T10:49:54;27.40;1.00
516;DHT22;244;48.508;9.052;2023-06-10T10:52:24;27.40;1.00
516;DHT22;244;48.508;9.052;2023-06-10T10:54:53;27.50;1.00
516;DHT22;244;48.508;9.052;2023-06-10T10:57:21;27.60;1.00
516;DHT22;244;48.508;9.052;2023-06-10T10:59:55;27.70;1.00
516;DHT22;244;48.508;9.052;2023-06-10T11:02:40;27.80;1.00
516;DHT22;244;48.508;9.052;2023-06-10T11:05:09;27.90;1.00
516;DHT22;244;48.508;9.052;2023-06-10T11:07:37;28.00;1.00
516;DHT22;244;48.508;9.052;2023-06-10T11:10:07;28.20;1.00
516;DHT22;244;48.508;9.052;2023-06-10T11:12:42;28.20;1.00
516;DHT22;244;48.508;9.052;2023-06-10T11:15:18;28.20;1.00
516;DHT22;244;48.508;9.052;2023-06-10T11:18:09;28.20;1.00
516;DHT22;244;48.508;9.052;2023-06-10T11:20:51;28.20;1.00
516;DHT22;244;48.508;9.052;2023-06-10T11:23:41;28.40;1.00
516;DHT22;244;48.508;9.052;2023-06-10T11:26:13;28.60;1.00
516;DHT22;244;48.508;9.052;2023-06-10T11:28:41;28.70;1.00
516;DHT22;244;48.508;9.052;2023-06-10T11:31:18;28.60;1.00
516;DHT22;244;48.508;9.052;2023-06-10T11:33:47;28.60;1.00
516;DHT22;244;48.508;9.052;2023-06-10T11:36:14;28.50;1.00
516;DHT22;244;48.508;9.052;2023-06-10T11:38:41;28.50;1.00
516;DHT22;244;48.508;9.052;2023-06-10T11:41:09;28.60;1.00
516;DHT22;244;48.508;9.052;2023-06-10T11:43:36;28.70;1.00
516;DHT22;244;48.508;9.052;2023-06-10T11:46:03;28.80;1.00
516;DHT22;244;48.508;9.052;2023-06-10T11:48:35;28.90;1.00
516;DHT22;244;48.508;9.052;2023-06-10T11:51:06;29.00;1.00
516;DHT22;244;48.508;9.052;2023-06-10T11:53:32;29.10;1.00
516;DHT22;244;48.508;9.052;2023-06-10T11:55:59;29.10;1.00
516;DHT22;244;48.508;9.052;2023-06-10T11:58:26;29.10;1.00
516;DHT22;244;48.508;9.052;2023-06-10T12:00:55;29.20;1.00
516;DHT22;244;48.508;9.052;2023-06-10T12:03:23;29.30;1.00
516;DHT22;244;48.508;9.052;2023-06-10T12:05:57;29.30;1.00
516;DHT22;244;48.508;9.052;2023-06-10T12:08:24;29.30;1.00
516;DHT22;244;48.508;9.052;2023-06-10T12:10:52;29.30;1.00
516;DHT22;244;48.508;9.052;2023-06-10T12:13:19;29.20;1.00
516;DHT22;244;48.508;9.052;2023-06-10T12:15:46;29.10;1.00
516;DHT22;244;48.508;9.052;2023-06-10T12:18:16;29.20;1.00
516;DHT22;244;48.508;9.052;2023-06-10T12:20:44;29.30;1.00
516;DHT22;244;48.508;9.052;2023-06-10T12:23:13;29.30;1.00
516;DHT22;244;48.508;9.052;2023-06-10T12:25:49;29.40;1.00
516;DHT22;244;48.508;9.052;2023-06-10T12:28:20;29.40;1.00
516;DHT22;244;48.508;9.052;2023-06-10T12:30:48;29.40;1.00
516;DHT22;244;48.508;9.052;2023-06-10T12:33:18;29.40;1.00
516;DHT22;244;48.508;9.052;2023-06-10T12:35:48;29.60;1.00
516;DHT22;244;48.508;9.052;2023-06-10T12:38:22;29.70;1.00
516;DHT22;244;48.508;9.052;2023-06-10T12:40:53;29.90;1.00
516;DHT22;244;48.508;9.052;2023-06-10T12:43:23;30.00;1.00
516;DHT22;244;48.508;9.052;2023-06-10T12:45:50;30.10;1.00
516;DHT22;244;48.508;9.052;2023-06-10T12:48:20;30.20;1.00
516;DHT22;244;48.508;9.052;2023-06-10T12:50:50;30.10;1.00
516;DHT22;244;48.508;9.052;2023-06-10T12:53:18;30.00;1.00
516;DHT22;244;48.508;9.052;2023-06-10T12:55:47;29.90;1.00
516;DHT22;244;48.508;9.052;2023-06-10T12:58:14;29.90;1.00
516;DHT22;244;48.508;9.052;2023-06-10T13:00:41;30.10;1.00
516;DHT22;244;48.508;9.052;2023-06-10T13:03:09;30.20;1.00
516;DHT22;244;48.508;9.052;2023-06-10T13:05:36;30.40;1.00
516;DHT22;244;48.508;9.052;2023-06-10T13:08:04;30.50;1.00
516;DHT22;244;48.508;9.052;2023-06-10T13:10:31;30.60;1.00
516;DHT22;244;48.508;9.052;2023-06-10T13:13:00;30.50;1.00
516;DHT22;244;48.508;9.052;2023-06-10T13:15:30;30.40;1.00
516;DHT22;244;48.508;9.052;2023-06-10T13:17:57;30.40;1.00
516;DHT22;244;48.508;9.052;2023-06-10T13:20:27;30.50;1.00
516;DHT22;244;48.508;9.052;2023-06-10T13:22:53;30.80;1.00
516;DHT22;244;48.508;9.052;2023-06-10T13:25:20;31.00;1.00
516;DHT22;244;48.508;9.052;2023-06-10T13:27:49;31.20;1.00
516;DHT22;244;48.508;9.052;2023-06-10T13:30:18;31.50;1.00
516;DHT22;244;48.508;9.052;2023-06-10T13:32:44;31.80;1.00
516;DHT22;244;48.508;9.052;2023-06-10T13:35:11;32.20;1.00
516;DHT22;244;48.508;9.052;2023-06-10T13:37:38;32.40;1.00
516;DHT22;244;48.508;9.052;2023-06-10T13:40:06;32.50;1.00
516;DHT22;244;48.508;9.052;2023-06-10T13:42:35;32.30;1.00
516;DHT22;244;48.508;9.052;2023-06-10T13:45:02;32.10;1.00
516;DHT22;244;48.508;9.052;2023-06-10T13:47:31;32.00;1.00
516;DHT22;244;48.508;9.052;2023-06-10T13:49:58;32.00;1.00
516;DHT22;244;48.508;9.052;2023-06-10T13:52:25;32.30;1.00
516;DHT22;244;48.508;9.052;2023-06-10T13:54:52;32.70;1.00
516;DHT22;244;48.508;9.052;2023-06-10T13:57:21;33.10;1.00
516;DHT22;244;48.508;9.052;2023-06-10T13:59:48;33.50;1.00
516;DHT22;244;48.508;9.052;2023-06-10T14:02:16;34.00;1.00
516;DHT22;244;48.508;9.052;2023-06-10T14:04:44;34.30;1.00
516;DHT22;244;48.508;9.052;2023-06-10T14:07:11;34.80;1.00
516;DHT22;244;48.508;9.052;2023-06-10T14:09:38;35.20;1.00
516;DHT22;244;48.508;9.052;2023-06-10T14:12:05;35.60;1.00
516;DHT22;244;48.508;9.052;2023-06-10T14:14:32;35.70;1.00
516;DHT22;244;48.508;9.052;2023-06-10T14:16:59;35.80;1.00
516;DHT22;244;48.508;9.052;2023-06-10T14:19:26;35.80;1.00
516;DHT22;244;48.508;9.052;2023-06-10T14:21:54;35.90;1.00
516;DHT22;244;48.508;9.052;2023-06-10T14:24:21;35.90;1.00
516;DHT22;244;48.508;9.052;2023-06-10T14:26:48;35.80;1.00
516;DHT22;244;48.508;9.052;2023-06-10T14:29:15;35.90;1.00
516;DHT22;244;48.508;9.052;2023-06-10T14:31:43;36.00;1.00
516;DHT22;244;48.508;9.052;2023-06-10T14:34:10;36.10;1.00
516;DHT22;244;48.508;9.052;2023-06-10T14:36:37;36.20;1.00
516;DHT22;244;48.508;9.052;2023-06-10T14:39:05;36.40;1.00
516;DHT22;244;48.508;9.052;2023-06-10T14:41:32;36.20;1.00
516;DHT22;244;48.508;9.052;2023-06-10T14:43:59;35.60;1.00
516;DHT22;244;48.508;9.052;2023-06-10T14:46:26;34.90;1.00
516;DHT22;244;48.508;9.052;2023-06-10T14:49:03;34.30;1.00
516;DHT22;244;48.508;9.052;2023-06-10T14:51:30;33.90;1.00
516;DHT22;244;48.508;9.052;2023-06-10T14:53:57;33.70;1.00
516;DHT22;244;48.508;9.052;2023-06-10T14:56:26;33.80;1.00
516;DHT22;244;48.508;9.052;2023-06-10T14:58:52;33.90;1.00
516;DHT22;244;48.508;9.052;2023-06-10T15:01:19;33.90;1.00
516;DHT22;244;48.508;9.052;2023-06-10T15:03:46;33.90;1.00
516;DHT22;244;48.508;9.052;2023-06-10T15:06:13;34.00;1.00
516;DHT22;244;48.508;9.052;2023-06-10T15:08:42;34.20;1.00
516;DHT22;244;48.508;9.052;2023-06-10T15:11:09;34.20;1.00
516;DHT22;244;48.508;9.052;2023-06-10T15:13:39;33.80;1.00
516;DHT22;244;48.508;9.052;2023-06-10T15:16:06;33.40;1.00
516;DHT22;244;48.508;9.052;2023-06-10T15:18:33;33.10;1.00
516;DHT22;244;48.508;9.052;2023-06-10T15:21:00;33.10;1.00
516;DHT22;244;48.508;9.052;2023-06-10T15:23:27;33.10;1.00
516;DHT22;244;48.508;9.052;2023-06-10T15:25:58;33.10;1.00
516;DHT22;244;48.508;9.052;2023-06-10T15:28:27;33.20;1.00
516;DHT22;244;48.508;9.052;2023-06-10T15:30:55;33.50;1.00
516;DHT22;244;48.508;9.052;2023-06-10T15:33:22;33.80;1.00
516;DHT22;244;48.508;9.052;2023-06-10T15:35:49;34.10;1.00
516;DHT22;244;48.508;9.052;2023-06-10T15:38:18;34.60;1.00
516;DHT22;244;48.508;9.052;2023-06-10T15:40:44;34.70;1.00
516;DHT22;244;48.508;9.052;2023-06-10T15:43:11;34.40;1.00
516;DHT22;244;48.508;9.052;2023-06-10T15:45:39;33.90;1.00
516;DHT22;244;48.508;9.052;2023-06-10T15:48:07;33.40;1.00
516;DHT22;244;48.508;9.052;2023-06-10T15:50:34;32.90;1.00
516;DHT22;244;48.508;9.052;2023-06-10T15:53:01;32.60;1.00
516;DHT22;244;48.508;9.052;2023-06-10T15:55:29;32.70;1.00
516;DHT22;244;48.508;9.052;2023-06-10T15:57:55;32.50;1.00
516;DHT22;244;48.508;9.052;2023-06-10T16:00:25;32.50;1.00
516;DHT22;244;48.508;9.052;2023-06-10T16:02:52;32.50;1.00
516;DHT22;244;48.508;9.052;2023-06-10T16:05:20;32.70;1.00
516;DHT22;244;48.508;9.052;2023-06-10T16:07:47;33.00;1.00
516;DHT22;244;48.508;9.052;2023-06-10T16:10:14;33.30;1.00
516;DHT22;244;48.508;9.052;2023-06-10T16:12:41;33.60;1.00
516;DHT22;244;48.508;9.052;2023-06-10T16:15:08;33.70;1.00
516;DHT22;244;48.508;9.052;2023-06-10T16:17:35;33.80;1.00
516;DHT22;244;48.508;9.052;2023-06-10T16:20:04;33.90;1.00
516;DHT22;244;48.508;9.052;2023-06-10T16:22:33;34.10;1.00
516;DHT22;244;48.508;9.052;2023-06-10T16:25:00;34.20;1.00
516;DHT22;244;48.508;9.052;2023-06-10T16:27:27;34.50;1.00
516;DHT22;244;48.508;9.052;2023-06-10T16:29:54;34.70;1.00
516;DHT22;244;48.508;9.052;2023-06-10T16:32:21;34.90;1.00
516;DHT22;244;48.508;9.052;2023-06-10T16:34:48;34.80;1.00
516;DHT22;244;48.508;9.052;2023-06-10T16:37:15;34.60;1.00
516;DHT22;244;48.508;9.052;2023-06-10T16:39:43;34.40;1.00
516;DHT22;244;48.508;9.052;2023-06-10T16:42:10;34.30;1.00
516;DHT22;244;48.508;9.052;2023-06-10T16:44:36;34.10;1.00
516;DHT22;244;48.508;9.052;2023-06-10T16:47:04;34.00;1.00
516;DHT22;244;48.508;9.052;2023-06-10T16:49:33;33.90;1.00
516;DHT22;244;48.508;9.052;2023-06-10T16:52:01;33.70;1.00